sensor_id;sensor_type;location;lat;lon;timestamp;pressure;altitude;pressure_sealevel;temperature;humidity
49397;BME280;35615;41.410;2.194;2023-03-20T00:00:50;102207.47;;;18.40;51.87
49397;BME280;35615;41.410;2.194;2023-03-20T00:03:20;102209.72;;;18.27;52.25
49397;BME280;35615;41.410;2.194;2023-03-20T00:05:50;102204.44;;;18.26;52.11
49397;BME280;35615;41.410;2.194;2023-03-20T00:08:17;102199.97;;;18.22;52.18
49397;BME280;35615;41.410;2.194;2023-03-20T00:10:49;102204.34;;;18.23;52.10
49397;BME280;35615;41.410;2.194;2023-03-20T00:13:23;102191.28;;;18.23;52.03
49397;BME280;35615;41.410;2.194;2023-03-20T00:15:55;102195.88;;;18.30;51.73
49397;BME280;35615;41.410;2.194;2023-03-20T00:18:25;102196.59;;;18.26;51.83
49397;BME280;35615;41.410;2.194;2023-03-20T00:20:52;102195.09;;;18.34;51.78
49397;BME280;35615;41.410;2.194;2023-03-20T00:23:19;102195.63;;;18.22;51.77
49397;BME280;35615;41.410;2.194;2023-03-20T00:25:47;102186.09;;;18.24;51.63
49397;BME280;35615;41.410;2.194;2023-03-20T00:28:43;102191.31;;;18.24;51.78
49397;BME280;35615;41.410;2.194;2023-03-20T00:33:54;102184.28;;;18.22;51.42
49397;BME280;35615;41.410;2.194;2023-03-20T00:36:22;102185.25;;;18.25;51.63
49397;BME280;35615;41.410;2.194;2023-03-20T00:38:53;102185.38;;;17.73;52.77
49397;BME280;35615;41.410;2.194;2023-03-20T00:43:55;102181.31;;;18.10;52.04
49397;BME280;35615;41.410;2.194;2023-03-20T00:46:24;102178.56;;;18.07;51.68
49397;BME280;35615;41.410;2.194;2023-03-20T00:48:57;102168.63;;;17.95;52.16
49397;BME280;35615;41.410;2.194;2023-03-20T00:51:24;102168.50;;;18.19;51.56
49397;BME280;35615;41.410;2.194;2023-03-20T00:53:51;102172.84;;;18.18;51.81
49397;BME280;35615;41.410;2.194;2023-03-20T00:56:39;102168.50;;;17.90;52.39
49397;BME280;35615;41.410;2.194;2023-03-20T00:59:14;102166.13;;;17.98;52.21
49397;BME280;35615;41.410;2.194;2023-03-20T01:01:44;102166.44;;;18.09;51.77
49397;BME280;35615;41.410;2.194;2023-03-20T01:04:17;102158.44;;;18.04;52.02
49397;BME280;35615;41.410;2.194;2023-03-20T01:06:49;102158.25;;;17.96;52.21
49397;BME280;35615;41.410;2.194;2023-03-20T01:09:20;102146.63;;;17.87;52.23
49397;BME280;35615;41.410;2.194;2023-03-20T01:11:48;102145.72;;;17.86;52.11
49397;BME280;35615;41.410;2.194;2023-03-20T01:14:19;102133.59;;;17.88;52.20
49397;BME280;35615;41.410;2.194;2023-03-20T01:16:49;102133.50;;;17.85;52.25
49397;BME280;35615;41.410;2.194;2023-03-20T01:19:16;102133.53;;;17.87;52.26
49397;BME280;35615;41.410;2.194;2023-03-20T01:21:44;102134.75;;;17.98;52.03
49397;BME280;35615;41.410;2.194;2023-03-20T01:24:20;102134.13;;;18.07;51.85
49397;BME280;35615;41.410;2.194;2023-03-20T01:26:50;102131.38;;;18.02;52.06
49397;BME280;35615;41.410;2.194;2023-03-20T01:29:24;102128.09;;;18.09;51.81
49397;BME280;35615;41.410;2.194;2023-03-20T01:31:55;102143.81;;;18.09;51.86
49397;BME280;35615;41.410;2.194;2023-03-20T01:34:25;102136.91;;;18.13;51.55
49397;BME280;35615;41.410;2.194;2023-03-20T01:36:57;102144.69;;;18.10;51.82
49397;BME280;35615;41.410;2.194;2023-03-20T01:39:33;102131.66;;;18.11;51.55
49397;BME280;35615;41.410;2.194;2023-03-20T01:42:03;102132.41;;;18.07;51.63
49397;BME280;35615;41.410;2.194;2023-03-20T01:44:34;102120.94;;;18.04;51.79
49397;BME280;35615;41.410;2.194;2023-03-20T01:47:13;102126.94;;;17.99;51.67
49397;BME280;35615;41.410;2.194;2023-03-20T01:53:14;102121.63;;;17.96;51.98
49397;BME280;35615;41.410;2.194;2023-03-20T01:55:53;102111.09;;;17.95;51.89
49397;BME280;35615;41.410;2.194;2023-03-20T01:58:31;102113.03;;;18.00;51.85
49397;BME280;35615;41.410;2.194;2023-03-20T02:01:04;102101.72;;;18.02;51.54
49397;BME280;35615;41.410;2.194;2023-03-20T02:03:33;102102.44;;;17.96;51.85
49397;BME280;35615;41.410;2.194;2023-03-20T02:06:05;102100.81;;;17.99;51.85
49397;BME280;35615;41.410;2.194;2023-03-20T02:08:52;102102.44;;;17.96;51.91
49397;BME280;35615;41.410;2.194;2023-03-20T02:11:23;102103.13;;;17.90;51.79
49397;BME280;35615;41.410;2.194;2023-03-20T02:13:54;102091.75;;;17.88;52.04
49397;BME280;35615;41.410;2.194;2023-03-20T02:16:26;102097.72;;;17.84;51.91
49397;BME280;35615;41.410;2.194;2023-03-20T02:19:14;102088.16;;;17.85;51.84
49397;BME280;35615;41.410;2.194;2023-03-20T02:24:48;102078.19;;;17.73;52.34
49397;BME280;35615;41.410;2.194;2023-03-20T02:41:38;102065.81;;;17.67;52.27
49397;BME280;35615;41.410;2.194;2023-03-20T02:46:47;102058.94;;;17.69;52.21
49397;BME280;35615;41.410;2.194;2023-03-20T03:00:19;102045.47;;;17.57;52.22
49397;BME280;35615;41.410;2.194;2023-03-20T03:03:03;102029.72;;;17.54;52.47
49397;BME280;35615;41.410;2.194;2023-03-20T03:06:29;102024.63;;;17.59;52.26
49397;BME280;35615;41.410;2.194;2023-03-20T03:09:11;102016.69;;;17.56;52.25
49397;BME280;35615;41.410;2.194;2023-03-20T03:11:56;102025.28;;;17.52;52.12
49397;BME280;35615;41.410;2.194;2023-03-20T03:16:56;102019.34;;;17.57;52.40
49397;BME280;35615;41.410;2.194;2023-03-20T03:19:27;102021.00;;;17.54;51.92
49397;BME280;35615;41.410;2.194;2023-03-20T03:21:55;102017.53;;;17.55;52.33
49397;BME280;35615;41.410;2.194;2023-03-20T03:24:42;102008.69;;;17.51;52.24
49397;BME280;35615;41.410;2.194;2023-03-20T03:27:33;102016.53;;;17.51;52.43
49397;BME280;35615;41.410;2.194;2023-03-20T03:30:25;102006.09;;;17.51;52.41
49397;BME280;35615;41.410;2.194;2023-03-20T03:33:14;102007.81;;;17.51;52.56
49397;BME280;35615;41.410;2.194;2023-03-20T03:35:48;102005.16;;;17.49;52.59
49397;BME280;35615;41.410;2.194;2023-03-20T03:41:39;102016.31;;;17.43;52.62
49397;BME280;35615;41.410;2.194;2023-03-20T03:46:47;102007.44;;;17.38;52.72
49397;BME280;35615;41.410;2.194;2023-03-20T03:49:26;102001.25;;;17.35;52.85
49397;BME280;35615;41.410;2.194;2023-03-20T03:51:59;102003.78;;;17.32;52.68
49397;BME280;35615;41.410;2.194;2023-03-20T03:54:39;101999.25;;;17.26;52.80
49397;BME280;35615;41.410;2.194;2023-03-20T03:57:50;102007.91;;;17.25;52.90
49397;BME280;35615;41.410;2.194;2023-03-20T04:00:22;102005.34;;;17.27;52.71
49397;BME280;35615;41.410;2.194;2023-03-20T04:02:53;101998.44;;;17.29;52.40
49397;BME280;35615;41.410;2.194;2023-03-20T04:05:23;101995.69;;;17.24;52.57
49397;BME280;35615;41.410;2.194;2023-03-20T04:07:54;101991.38;;;17.25;52.43
49397;BME280;35615;41.410;2.194;2023-03-20T04:10:22;101990.47;;;17.24;52.40
49397;BME280;35615;41.410;2.194;2023-03-20T04:12:49;101991.53;;;17.29;52.37
49397;BME280;35615;41.410;2.194;2023-03-20T04:15:17;102000.16;;;17.28;52.41
49397;BME280;35615;41.410;2.194;2023-03-20T04:17:46;102004.66;;;17.32;52.14
49397;BME280;35615;41.410;2.194;2023-03-20T04:20:15;102008.16;;;17.33;52.16
49397;BME280;35615;41.410;2.194;2023-03-20T04:22:45;102005.47;;;17.30;52.37
49397;BME280;35615;41.410;2.194;2023-03-20T04:25:17;102007.00;;;17.23;52.57
49397;BME280;35615;41.410;2.194;2023-03-20T04:27:47;102010.09;;;17.11;52.61
49397;BME280;35615;41.410;2.194;2023-03-20T04:30:35;102006.63;;;17.11;52.35
49397;BME280;35615;41.410;2.194;2023-03-20T04:33:33;102005.72;;;17.10;52.24
49397;BME280;35615;41.410;2.194;2023-03-20T04:36:19;102012.50;;;17.05;52.61
49397;BME280;35615;41.410;2.194;2023-03-20T04:38:48;102002.22;;;17.10;52.30
49397;BME280;35615;41.410;2.194;2023-03-20T04:41:22;101995.19;;;17.07;52.22
49397;BME280;35615;41.410;2.194;2023-03-20T04:43:53;101997.69;;;17.04;52.70
49397;BME280;35615;41.410;2.194;2023-03-20T04:46:21;101988.38;;;17.12;52.28
49397;BME280;35615;41.410;2.194;2023-03-20T04:48:52;101993.50;;;17.09;51.92
49397;BME280;35615;41.410;2.194;2023-03-20T04:51:20;101989.13;;;17.08;51.96
49397;BME280;35615;41.410;2.194;2023-03-20T04:53:49;101991.91;;;17.14;51.96
49397;BME280;35615;41.410;2.194;2023-03-20T04:56:17;101985.50;;;17.05;52.34
49397;BME280;35615;41.410;2.194;2023-03-20T04:58:49;101982.81;;;17.02;51.88
49397;BME280;35615;41.410;2.194;2023-03-20T05:01:19;101981.09;;;17.02;51.88
49397;BME280;35615;41.410;2.194;2023-03-20T05:03:46;101985.34;;;16.99;52.24
49397;BME280;35615;41.410;2.194;2023-03-20T05:06:16;101986.94;;;16.95;51.88
49397;BME280;35615;41.410;2.194;2023-03-20T05:08:52;101986.06;;;16.95;52.00
49397;BME280;35615;41.410;2.194;2023-03-20T05:11:20;101987.78;;;16.94;51.55
49397;BME280;35615;41.410;2.194;2023-03-20T05:13:54;101985.84;;;16.87;51.79
49397;BME280;35615;41.410;2.194;2023-03-20T05:16:42;101992.91;;;16.91;51.66
49397;BME280;35615;41.410;2.194;2023-03-20T05:19:29;101990.06;;;16.83;51.70
49397;BME280;35615;41.410;2.194;2023-03-20T05:22:17;101991.69;;;16.80;51.54
49397;BME280;35615;41.410;2.194;2023-03-20T05:25:20;101986.47;;;16.80;51.53
49397;BME280;35615;41.410;2.194;2023-03-20T05:28:17;101981.94;;;16.74;51.77
49397;BME280;35615;41.410;2.194;2023-03-20T05:31:08;101980.22;;;16.75;51.86
49397;BME280;35615;41.410;2.194;2023-03-20T05:33:54;101984.47;;;16.73;51.53
49397;BME280;35615;41.410;2.194;2023-03-20T05:36:48;101983.59;;;16.72;51.78
49397;BME280;35615;41.410;2.194;2023-03-20T05:39:26;101984.56;;;16.74;51.82
49397;BME280;35615;41.410;2.194;2023-03-20T05:42:29;101992.19;;;16.68;51.94
49397;BME280;35615;41.410;2.194;2023-03-20T05:45:34;101986.53;;;16.56;51.84
49397;BME280;35615;41.410;2.194;2023-03-20T05:48:28;101986.13;;;16.69;51.57
49397;BME280;35615;41.410;2.194;2023-03-20T05:51:18;101986.97;;;16.68;51.80
49397;BME280;35615;41.410;2.194;2023-03-20T05:54:09;101976.19;;;16.59;51.51
49397;BME280;35615;41.410;2.194;2023-03-20T05:56:54;101979.31;;;16.49;51.71
49397;BME280;35615;41.410;2.194;2023-03-20T05:59:45;101979.53;;;16.55;51.62
49397;BME280;35615;41.410;2.194;2023-03-20T06:02:30;101982.09;;;16.53;51.52
49397;BME280;35615;41.410;2.194;2023-03-20T06:05:07;101980.41;;;16.55;51.24
49397;BME280;35615;41.410;2.194;2023-03-20T06:07:48;101985.59;;;16.54;51.28
49397;BME280;35615;41.410;2.194;2023-03-20T06:10:18;101996.13;;;16.57;51.32
49397;BME280;35615;41.410;2.194;2023-03-20T06:12:48;101993.41;;;16.54;51.30
49397;BME280;35615;41.410;2.194;2023-03-20T06:15:18;102004.09;;;16.62;51.12
49397;BME280;35615;41.410;2.194;2023-03-20T06:17:54;102011.16;;;16.64;51.48
49397;BME280;35615;41.410;2.194;2023-03-20T06:20:22;102012.97;;;16.67;51.07
49397;BME280;35615;41.410;2.194;2023-03-20T06:22:51;102008.59;;;16.66;51.20
49397;BME280;35615;41.410;2.194;2023-03-20T06:25:19;102015.56;;;16.67;50.89
49397;BME280;35615;41.410;2.194;2023-03-20T06:27:52;102016.19;;;16.60;51.42
49397;BME280;35615;41.410;2.194;2023-03-20T06:30:21;102019.56;;;16.55;51.27
49397;BME280;35615;41.410;2.194;2023-03-20T06:32:55;102014.34;;;16.55;51.76
49397;BME280;35615;41.410;2.194;2023-03-20T06:35:30;102023.88;;;16.55;51.64
49397;BME280;35615;41.410;2.194;2023-03-20T06:38:00;102021.19;;;16.52;51.54
49397;BME280;35615;41.410;2.194;2023-03-20T06:40:29;102021.22;;;16.53;51.79
49397;BME280;35615;41.410;2.194;2023-03-20T06:42:58;102025.56;;;16.53;51.15
49397;BME280;35615;41.410;2.194;2023-03-20T06:45:39;102018.28;;;16.44;51.24
49397;BME280;35615;41.410;2.194;2023-03-20T06:48:16;102027.00;;;16.45;52.04
49397;BME280;35615;41.410;2.194;2023-03-20T06:50:51;102033.94;;;16.44;51.49
49397;BME280;35615;41.410;2.194;2023-03-20T06:53:21;102037.16;;;16.37;51.72
49397;BME280;35615;41.410;2.194;2023-03-20T06:56:02;102040.94;;;16.45;51.36
49397;BME280;35615;41.410;2.194;2023-03-20T06:58:31;102040.59;;;16.36;51.67
49397;BME280;35615;41.410;2.194;2023-03-20T07:01:01;102038.38;;;16.47;51.17
49397;BME280;35615;41.410;2.194;2023-03-20T07:03:28;102042.59;;;16.43;50.99
49397;BME280;35615;41.410;2.194;2023-03-20T07:05:57;102047.09;;;16.47;50.46
49397;BME280;35615;41.410;2.194;2023-03-20T07:08:27;102047.88;;;16.45;50.37
49397;BME280;35615;41.410;2.194;2023-03-20T07:10:58;102049.41;;;16.40;50.87
49397;BME280;35615;41.410;2.194;2023-03-20T07:13:27;102052.75;;;16.36;50.72
49397;BME280;35615;41.410;2.194;2023-03-20T07:15:56;102056.50;;;16.42;50.22
49397;BME280;35615;41.410;2.194;2023-03-20T07:18:36;102064.31;;;16.42;50.41
49397;BME280;35615;41.410;2.194;2023-03-20T07:21:05;102052.88;;;16.39;50.23
49397;BME280;35615;41.410;2.194;2023-03-20T07:23:34;102060.63;;;16.37;50.16
49397;BME280;35615;41.410;2.194;2023-03-20T07:26:03;102052.31;;;16.47;49.83
49397;BME280;35615;41.410;2.194;2023-03-20T07:28:32;102057.69;;;16.52;50.08
49397;BME280;35615;41.410;2.194;2023-03-20T07:31:27;102055.22;;;16.56;50.12
49397;BME280;35615;41.410;2.194;2023-03-20T07:34:05;102059.88;;;16.65;49.70
49397;BME280;35615;41.410;2.194;2023-03-20T07:36:34;102061.78;;;16.69;49.57
49397;BME280;35615;41.410;2.194;2023-03-20T07:39:09;102065.38;;;16.73;49.48
49397;BME280;35615;41.410;2.194;2023-03-20T07:41:39;102068.31;;;16.82;49.55
49397;BME280;35615;41.410;2.194;2023-03-20T07:44:09;102066.63;;;16.84;49.14
49397;BME280;35615;41.410;2.194;2023-03-20T07:46:52;102067.50;;;16.84;49.52
49397;BME280;35615;41.410;2.194;2023-03-20T07:49:22;102062.16;;;16.80;49.39
49397;BME280;35615;41.410;2.194;2023-03-20T07:51:50;102064.25;;;16.90;49.31
49397;BME280;35615;41.410;2.194;2023-03-20T07:54:17;102052.78;;;16.85;49.47
49397;BME280;35615;41.410;2.194;2023-03-20T07:56:47;102056.13;;;17.08;49.17
49397;BME280;35615;41.410;2.194;2023-03-20T07:59:19;102044.94;;;17.12;49.08
49397;BME280;35615;41.410;2.194;2023-03-20T08:01:49;102049.53;;;17.19;48.76
49397;BME280;35615;41.410;2.194;2023-03-20T08:04:16;102044.72;;;17.33;48.36
49397;BME280;35615;41.410;2.194;2023-03-20T08:06:48;102048.47;;;17.41;48.76
49397;BME280;35615;41.410;2.194;2023-03-20T08:09:17;102043.44;;;17.47;47.85
49397;BME280;35615;41.410;2.194;2023-03-20T08:11:44;102047.22;;;17.57;47.63
49397;BME280;35615;41.410;2.194;2023-03-20T08:14:12;102034.94;;;17.54;47.12
49397;BME280;35615;41.410;2.194;2023-03-20T08:16:39;102036.63;;;17.81;46.28
49397;BME280;35615;41.410;2.194;2023-03-20T08:19:06;102041.53;;;18.00;45.53
49397;BME280;35615;41.410;2.194;2023-03-20T08:21:34;102046.31;;;18.15;44.90
49397;BME280;35615;41.410;2.194;2023-03-20T08:24:01;102041.00;;;18.43;44.35
49397;BME280;35615;41.410;2.194;2023-03-20T08:26:33;102050.03;;;18.56;43.58
49397;BME280;35615;41.410;2.194;2023-03-20T08:29:00;102047.78;;;18.68;44.00
49397;BME280;35615;41.410;2.194;2023-03-20T08:31:27;102045.47;;;19.16;44.03
49397;BME280;35615;41.410;2.194;2023-03-20T08:33:54;102042.78;;;19.51;43.50
49397;BME280;35615;41.410;2.194;2023-03-20T08:36:22;102041.03;;;19.91;42.77
49397;BME280;35615;41.410;2.194;2023-03-20T08:38:50;102037.47;;;20.31;41.85
49397;BME280;35615;41.410;2.194;2023-03-20T08:41:18;102043.28;;;20.62;40.71
49397;BME280;35615;41.410;2.194;2023-03-20T08:43:50;102034.28;;;20.99;39.36
49397;BME280;35615;41.410;2.194;2023-03-20T08:46:17;102041.78;;;21.29;38.91
49397;BME280;35615;41.410;2.194;2023-03-20T08:48:45;102044.91;;;21.64;39.42
49397;BME280;35615;41.410;2.194;2023-03-20T08:51:15;102031.50;;;21.45;38.36
49397;BME280;35615;41.410;2.194;2023-03-20T08:53:42;102042.94;;;21.49;38.76
49397;BME280;35615;41.410;2.194;2023-03-20T08:56:09;102033.69;;;21.77;37.15
49397;BME280;35615;41.410;2.194;2023-03-20T08:58:37;102031.50;;;22.12;37.82
49397;BME280;35615;41.410;2.194;2023-03-20T09:01:06;102030.84;;;22.35;36.46
49397;BME280;35615;41.410;2.194;2023-03-20T09:03:35;102036.31;;;22.56;36.52
49397;BME280;35615;41.410;2.194;2023-03-20T09:06:06;102030.41;;;22.83;35.51
49397;BME280;35615;41.410;2.194;2023-03-20T09:08:37;102027.94;;;23.03;35.64
49397;BME280;35615;41.410;2.194;2023-03-20T09:11:04;102028.88;;;23.09;34.15
49397;BME280;35615;41.410;2.194;2023-03-20T09:13:33;102027.19;;;23.17;33.57
49397;BME280;35615;41.410;2.194;2023-03-20T09:16:05;102024.69;;;23.40;33.39
49397;BME280;35615;41.410;2.194;2023-03-20T09:18:33;102024.75;;;23.54;32.73
49397;BME280;35615;41.410;2.194;2023-03-20T09:21:00;102027.16;;;23.16;33.45
49397;BME280;35615;41.410;2.194;2023-03-20T09:23:30;102022.94;;;23.41;33.53
49397;BME280;35615;41.410;2.194;2023-03-20T09:25:58;102024.03;;;23.81;33.43
49397;BME280;35615;41.410;2.194;2023-03-20T09:28:25;102032.03;;;24.07;32.50
49397;BME280;35615;41.410;2.194;2023-03-20T09:30:57;102027.66;;;24.15;30.72
49397;BME280;35615;41.410;2.194;2023-03-20T09:33:25;102036.28;;;23.68;34.34
49397;BME280;35615;41.410;2.194;2023-03-20T09:35:52;102033.69;;;23.76;35.03
49397;BME280;35615;41.410;2.194;2023-03-20T09:38:20;102025.84;;;23.96;35.01
49397;BME280;35615;41.410;2.194;2023-03-20T09:41:23;102021.41;;;23.86;33.99
49397;BME280;35615;41.410;2.194;2023-03-20T09:44:00;102030.28;;;24.09;34.44
49397;BME280;35615;41.410;2.194;2023-03-20T09:46:59;102031.06;;;23.76;34.00
49397;BME280;35615;41.410;2.194;2023-03-20T09:50:22;102024.94;;;23.89;34.08
49397;BME280;35615;41.410;2.194;2023-03-20T09:53:24;102030.91;;;23.52;34.26
49397;BME280;35615;41.410;2.194;2023-03-20T09:55:54;102030.63;;;23.06;34.69
49397;BME280;35615;41.410;2.194;2023-03-20T09:58:29;102024.75;;;23.53;33.57
49397;BME280;35615;41.410;2.194;2023-03-20T10:01:02;102025.53;;;23.35;33.22
49397;BME280;35615;41.410;2.194;2023-03-20T10:03:46;102024.06;;;23.92;33.20
49397;BME280;35615;41.410;2.194;2023-03-20T10:06:16;102019.69;;;24.03;33.57
49397;BME280;35615;41.410;2.194;2023-03-20T10:08:44;102019.75;;;24.17;33.28
49397;BME280;35615;41.410;2.194;2023-03-20T10:11:19;102017.16;;;24.38;32.63
49397;BME280;35615;41.410;2.194;2023-03-20T10:19:57;102017.19;;;24.40;31.17
49397;BME280;35615;41.410;2.194;2023-03-20T10:22:41;102013.66;;;24.82;30.77
49397;BME280;35615;41.410;2.194;2023-03-20T10:28:15;102011.88;;;25.28;29.47
49397;BME280;35615;41.410;2.194;2023-03-20T10:42:02;102011.88;;;25.30;31.85
49397;BME280;35615;41.410;2.194;2023-03-20T10:44:35;102006.59;;;24.82;33.29
49397;BME280;35615;41.410;2.194;2023-03-20T10:47:08;102011.91;;;24.85;33.92
49397;BME280;35615;41.410;2.194;2023-03-20T10:49:42;102013.56;;;25.38;33.82
49397;BME280;35615;41.410;2.194;2023-03-20T10:52:28;102005.63;;;25.44;34.57
49397;BME280;35615;41.410;2.194;2023-03-20T10:55:04;102015.41;;;24.55;35.85
49397;BME280;35615;41.410;2.194;2023-03-20T10:57:37;102018.03;;;25.30;35.09
49397;BME280;35615;41.410;2.194;2023-03-20T11:00:24;102004.75;;;25.44;34.63
49397;BME280;35615;41.410;2.194;2023-03-20T11:02:54;102008.34;;;25.20;35.01
49397;BME280;35615;41.410;2.194;2023-03-20T11:05:34;102010.84;;;25.76;33.44
49397;BME280;35615;41.410;2.194;2023-03-20T11:08:04;101999.44;;;25.55;34.10
49397;BME280;35615;41.410;2.194;2023-03-20T11:10:41;102009.25;;;25.19;34.12
49397;BME280;35615;41.410;2.194;2023-03-20T11:13:37;101996.78;;;25.48;33.44
49397;BME280;35615;41.410;2.194;2023-03-20T11:16:25;102003.88;;;25.36;33.70
49397;BME280;35615;41.410;2.194;2023-03-20T11:19:06;101998.50;;;25.65;33.80
49397;BME280;35615;41.410;2.194;2023-03-20T11:21:43;101994.97;;;25.60;34.03
49397;BME280;35615;41.410;2.194;2023-03-20T11:24:43;101995.09;;;25.40;34.47
49397;BME280;35615;41.410;2.194;2023-03-20T11:27:36;101999.34;;;25.68;33.29
49397;BME280;35615;41.410;2.194;2023-03-20T11:32:58;101999.94;;;26.25;33.12
49397;BME280;35615;41.410;2.194;2023-03-20T11:35:29;101998.50;;;25.74;33.45
49397;BME280;35615;41.410;2.194;2023-03-20T11:38:13;101997.56;;;25.80;34.12
49397;BME280;35615;41.410;2.194;2023-03-20T11:40:48;101991.41;;;25.77;34.35
49397;BME280;35615;41.410;2.194;2023-03-20T11:43:20;101994.84;;;25.96;33.72
49397;BME280;35615;41.410;2.194;2023-03-20T11:45:57;101993.06;;;25.94;33.84
49397;BME280;35615;41.410;2.194;2023-03-20T11:48:40;101994.00;;;25.90;34.24
49397;BME280;35615;41.410;2.194;2023-03-20T11:51:10;101988.75;;;25.81;34.66
49397;BME280;35615;41.410;2.194;2023-03-20T11:56:19;101984.19;;;26.04;33.57
49397;BME280;35615;41.410;2.194;2023-03-20T11:59:25;101982.97;;;26.55;33.40
49397;BME280;35615;41.410;2.194;2023-03-20T12:02:17;101975.66;;;25.44;34.52
49397;BME280;35615;41.410;2.194;2023-03-20T12:05:36;101965.00;;;25.61;34.00
49397;BME280;35615;41.410;2.194;2023-03-20T12:08:12;101970.03;;;26.10;33.55
49397;BME280;35615;41.410;2.194;2023-03-20T12:10:53;101958.59;;;26.03;33.74
49397;BME280;35615;41.410;2.194;2023-03-20T12:13:34;101965.66;;;26.02;33.69
49397;BME280;35615;41.410;2.194;2023-03-20T12:16:23;101962.78;;;26.42;33.22
49397;BME280;35615;41.410;2.194;2023-03-20T12:19:15;101962.09;;;26.10;34.00
49397;BME280;35615;41.410;2.194;2023-03-20T12:25:20;101960.38;;;26.05;33.83
49397;BME280;35615;41.410;2.194;2023-03-20T12:28:04;101970.72;;;26.42;33.35
49397;BME280;35615;41.410;2.194;2023-03-20T12:30:51;101964.59;;;26.32;34.55
49397;BME280;35615;41.410;2.194;2023-03-20T12:36:41;101966.94;;;24.99;36.73
49397;BME280;35615;41.410;2.194;2023-03-20T12:45:12;101953.66;;;25.30;36.01
49397;BME280;35615;41.410;2.194;2023-03-20T12:48:14;101929.84;;;25.25;36.24
49397;BME280;35615;41.410;2.194;2023-03-20T12:51:06;101931.31;;;25.93;35.30
49397;BME280;35615;41.410;2.194;2023-03-20T12:54:17;101932.00;;;26.20;34.34
49397;BME280;35615;41.410;2.194;2023-03-20T12:57:32;101925.88;;;26.13;33.99
49397;BME280;35615;41.410;2.194;2023-03-20T13:00:03;101915.13;;;26.33;34.50
49397;BME280;35615;41.410;2.194;2023-03-20T13:03:03;101922.25;;;26.23;33.83
49397;BME280;35615;41.410;2.194;2023-03-20T13:06:19;101911.66;;;26.23;34.27
49397;BME280;35615;41.410;2.194;2023-03-20T13:21:20;101902.69;;;26.44;34.18
49397;BME280;35615;41.410;2.194;2023-03-20T13:24:12;101910.84;;;26.17;34.02
49397;BME280;35615;41.410;2.194;2023-03-20T13:27:23;101897.97;;;25.62;34.74
49397;BME280;35615;41.410;2.194;2023-03-20T13:33:07;101898.72;;;25.85;35.51
49397;BME280;35615;41.410;2.194;2023-03-20T13:39:44;101894.50;;;25.51;35.86
49397;BME280;35615;41.410;2.194;2023-03-20T13:41:50;101899.06;;;25.12;36.00
49397;BME280;35615;41.410;2.194;2023-03-20T13:44:31;101882.25;;;25.30;35.31
49397;BME280;35615;41.410;2.194;2023-03-20T13:47:07;101887.63;;;25.10;36.33
49397;BME280;35615;41.410;2.194;2023-03-20T13:49:47;101892.13;;;24.53;37.79
49397;BME280;35615;41.410;2.194;2023-03-20T13:52:37;101891.22;;;24.23;38.77
49397;BME280;35615;41.410;2.194;2023-03-20T13:55:22;101890.28;;;24.95;37.56
49397;BME280;35615;41.410;2.194;2023-03-20T13:58:36;101890.06;;;25.51;36.64
49397;BME280;35615;41.410;2.194;2023-03-20T14:01:30;101892.97;;;24.14;37.16
49397;BME280;35615;41.410;2.194;2023-03-20T14:04:29;101886.84;;;24.56;37.93
49397;BME280;35615;41.410;2.194;2023-03-20T14:07:30;101868.94;;;25.43;36.82
49397;BME280;35615;41.410;2.194;2023-03-20T14:10:36;101876.13;;;25.12;37.54
49397;BME280;35615;41.410;2.194;2023-03-20T14:13:19;101880.69;;;24.55;37.42
49397;BME280;35615;41.410;2.194;2023-03-20T14:16:00;101882.44;;;24.49;38.38
49397;BME280;35615;41.410;2.194;2023-03-20T14:18:50;101885.06;;;24.26;38.85
49397;BME280;35615;41.410;2.194;2023-03-20T14:21:34;101889.44;;;23.93;39.33
49397;BME280;35615;41.410;2.194;2023-03-20T14:24:28;101894.72;;;23.87;39.79
49397;BME280;35615;41.410;2.194;2023-03-20T14:27:19;101883.16;;;23.39;41.35
49397;BME280;35615;41.410;2.194;2023-03-20T14:31:10;101884.19;;;23.84;39.80
49397;BME280;35615;41.410;2.194;2023-03-20T14:37:14;101886.59;;;23.25;40.86
49397;BME280;35615;41.410;2.194;2023-03-20T14:40:17;101882.81;;;22.80;42.52
49397;BME280;35615;41.410;2.194;2023-03-20T14:42:52;101882.97;;;23.00;41.73
49397;BME280;35615;41.410;2.194;2023-03-20T14:45:42;101879.47;;;23.05;41.87
49397;BME280;35615;41.410;2.194;2023-03-20T14:48:43;101887.47;;;23.22;40.34
49397;BME280;35615;41.410;2.194;2023-03-20T14:51:46;101875.13;;;23.16;40.41
49397;BME280;35615;41.410;2.194;2023-03-20T14:54:25;101871.63;;;23.14;40.70
49397;BME280;35615;41.410;2.194;2023-03-20T14:57:19;101867.91;;;22.80;42.20
49397;BME280;35615;41.410;2.194;2023-03-20T14:59:56;101865.47;;;23.14;41.58
49397;BME280;35615;41.410;2.194;2023-03-20T15:02:34;101870.63;;;22.85;41.88
49397;BME280;35615;41.410;2.194;2023-03-20T15:05:33;101867.88;;;22.76;42.63
49397;BME280;35615;41.410;2.194;2023-03-20T15:08:23;101868.63;;;22.52;43.21
49397;BME280;35615;41.410;2.194;2023-03-20T15:10:57;101866.09;;;22.72;43.81
49397;BME280;35615;41.410;2.194;2023-03-20T15:13:28;101878.22;;;22.48;43.79
49397;BME280;35615;41.410;2.194;2023-03-20T15:16:07;101873.97;;;22.67;43.01
49397;BME280;35615;41.410;2.194;2023-03-20T15:18:46;101871.28;;;22.59;42.75
49397;BME280;35615;41.410;2.194;2023-03-20T15:21:43;101877.13;;;22.17;43.84
49397;BME280;35615;41.410;2.194;2023-03-20T15:24:28;101869.16;;;22.10;43.84
49397;BME280;35615;41.410;2.194;2023-03-20T15:27:08;101869.84;;;21.92;42.71
49397;BME280;35615;41.410;2.194;2023-03-20T15:29:51;101866.16;;;21.73;43.61
49397;BME280;35615;41.410;2.194;2023-03-20T15:32:34;101866.91;;;21.61;44.38
49397;BME280;35615;41.410;2.194;2023-03-20T15:35:18;101874.50;;;21.35;44.85